KSLE

McNary Field Airport

Salem, Oregon, USA
METAR KSLE 151456Z 16003KT 8SM CLR 16/13 A2993 RMK AO2 SLP134 T01610133 53014
Observed Flight Rules
Aug-15 @ 14:56 UTC (4 minutes ago) Visual Flight Rules
Wind Visibility Clouds
160° at 3 knots 8 miles
  • Clear skies
Temperatures Readings
Current 16°C / 61°F
Dewpoint 13°C / 55°F
Humidity 83%
Altimeter 29.93" Hg
Pressure 1013.4 hPa
Elevation 59
METAR KSLE 151456Z 16003KT 8SM CLR 16/13 A2993 RMK AO2 SLP134 T01610133 53014
Observed Flight Rules
Aug-15 @ 14:56 UTC
(4 minutes ago)
VFR
Wind Visibility
160° at 3 knots 8 miles
Clouds
  • Clear skies
Temperature Dewpoint
16°C / 61°F 13°C / 55°F
Humidity Altimeter Pressure
83% 29.93" Hg 1013.4 hPa